Главная страница
METAR-TAF:

METAR-TAF

Аэропорты :

Нуакшот, Мавритания

широта: 18-18-36N, долгота: 015-58-11W, высота над уровнем моря: 3 м

Текущие метеонаблюдения

Эта сводка был подготовлена 27 минут назад, в 03:00 UTC
Ветер 7 Узел от северо-западный
Температура 17°C
Влажность 94%
Давление 1012 hPa
Видимость: 8000 м

METAR: GQNO 240300Z 31007KT 8000 NSC 17/16 Q1012 NOSIG

Время: 03:27 (03:27 UTC)

Прогноз

Эта сводка был подготовлена 4 часа и 27 минут назад, в 23:00 UTC
Прогноз действительный с 24-го 00 UTC до 25-го 06 UTC
Ветер 10 Узел от северо-западный
Видимость: 7000 м
Вероятность 30% :
временами
С 25-го 00 UTC до 25-го 06 UTC
Рассеянная облачность на высоте 1000 фута

TAF: GQNO 232300Z 2400/2506 32010KT 7000 NSC PROB30 TEMPO 2500/2506 BKN010

Метеонаблюдения и прогнозы для более 4000 аэропортов (сводки METAR и TAF).

Имеющиеся станции представлены на карте желтыми и красными точками.

Чтобы увидеть название станции, наведите на нее мышь.

Затем щелкните, чтобы увидеть метеонаблюдения и метеопрогнозы.

Управление картой: чтобы увеличить масштаб, щелкните зеленые кнопки с черным крестиком; чтобы уменьшить масштаб, щелкните зеленую кнопку с тире; для просмотра соседних карт щелкайте зеленые стрелки.


METAR-TAF: